Time;durP1;ratioP1;P1;durP2;ratioP2;P2;SDS_P1;SDS_P2;PMS_P1;PMS_P2;Temp;Humidity;BMP_temperature;BMP_pressure;BME280_temperature;BME280_humidity;BME280_pressure;Samples;Min_cycle;Max_cycle;Signal;HPM_P1;HPM_P2
2023/06/15 00:01:07;;;;;;;0.88;0.88;;;;;;;19.46;100.00;96832.88;4927182;29;20047;-64
2023/06/15 00:03:34;;;;;;;0.70;0.70;;;;;;;19.44;100.00;96832.50;4942035;29;20056;-63
2023/06/15 00:06:01;;;;;;;0.90;0.90;;;;;;;19.43;100.00;96839.38;4927442;29;20063;-64
2023/06/15 00:08:28;;;;;;;0.80;0.80;;;;;;;19.50;100.00;96839.22;4927512;29;20059;-63
2023/06/15 00:10:55;;;;;;;0.90;0.90;;;;;;;19.51;100.00;96832.38;4941760;29;20055;-62
2023/06/15 00:13:21;;;;;;;0.80;0.80;;;;;;;19.50;100.00;96828.00;4926874;29;20052;-63
2023/06/15 00:15:48;;;;;;;0.80;0.80;;;;;;;19.51;100.00;96835.19;4927151;29;20055;-63
2023/06/15 00:18:15;;;;;;;0.77;0.77;;;;;;;19.07;100.00;96785.13;4927349;29;20115;-65
2023/06/15 00:20:41;;;;;;;0.80;0.80;;;;;;;18.62;100.00;96710.25;4926991;29;20518;-63
2023/06/15 00:23:08;;;;;;;0.80;0.80;;;;;;;19.22;100.00;96839.75;4927295;29;20051;-63
2023/06/15 00:25:36;;;;;;;0.80;0.80;;;;;;;19.17;100.00;96834.63;4927013;29;20063;-63
2023/06/15 00:28:03;;;;;;;0.80;0.80;;;;;;;18.99;100.00;96780.88;4925360;29;20503;-62
2023/06/15 00:30:30;;;;;;;0.70;0.70;;;;;;;19.32;100.00;96835.97;4940986;29;20083;-63
2023/06/15 00:32:56;;;;;;;0.80;0.80;;;;;;;19.02;100.00;96774.38;4941484;29;20062;-62
2023/06/15 00:35:23;;;;;;;0.90;0.90;;;;;;;19.15;100.00;96822.25;4956789;28;20086;-63
2023/06/15 00:37:50;;;;;;;0.80;0.80;;;;;;;18.74;100.00;96758.13;4926541;29;20055;-63
2023/06/15 00:40:17;;;;;;;0.82;0.82;;;;;;;19.11;100.00;96816.72;4926627;29;20054;-62
2023/06/15 00:42:44;;;;;;;0.80;0.80;;;;;;;19.20;100.00;96822.56;4926454;29;20147;-63
2023/06/15 00:45:11;;;;;;;0.70;0.70;;;;;;;18.96;100.00;96812.63;4926415;29;20064;-62
2023/06/15 00:47:41;;;;;;;0.80;0.80;;;;;;;19.03;100.00;96837.72;4932167;29;20062;-63
2023/06/15 00:50:10;;;;;;;0.70;0.70;;;;;;;18.93;100.00;96804.25;4945413;29;20470;-63
2023/06/15 00:52:38;;;;;;;0.85;0.85;;;;;;;18.89;100.00;96821.16;4945939;28;20047;-63
2023/06/15 00:55:06;;;;;;;0.80;0.80;;;;;;;18.66;100.00;96767.91;4945374;28;20507;-63
2023/06/15 00:57:35;;;;;;;0.90;0.90;;;;;;;19.07;100.00;96820.81;4944249;28;20062;-62
2023/06/15 01:00:09;;;;;;;0.80;0.80;;;;;;;18.99;100.00;96813.75;4945716;28;20051;-64
2023/06/15 01:02:38;;;;;;;0.70;0.70;;;;;;;18.91;100.00;96818.72;4945773;28;20047;-62
2023/06/15 01:05:05;;;;;;;0.80;0.80;;;;;;;18.93;100.00;96819.09;4945868;28;20047;-62
2023/06/15 01:07:35;;;;;;;0.82;0.82;;;;;;;18.87;100.00;96812.41;4946301;28;20067;-63
2023/06/15 01:10:03;;;;;;;0.80;0.80;;;;;;;18.80;100.00;96812.53;4945855;28;20138;-62
2023/06/15 01:12:30;;;;;;;0.75;0.75;;;;;;;18.28;100.00;96746.94;4945556;28;20047;-63
2023/06/15 01:14:57;;;;;;;0.80;0.80;;;;;;;18.59;100.00;96801.69;4945564;28;20069;-63
2023/06/15 01:17:24;;;;;;;0.80;0.80;;;;;;;18.38;100.00;96774.03;4945482;28;20058;-63
2023/06/15 01:19:58;;;;;;;0.77;0.77;;;;;;;18.47;100.00;96776.25;4945705;28;20051;-63
2023/06/15 01:22:45;;;;;;;0.70;0.70;;;;;;;18.30;100.00;96730.47;4944011;29;20083;-63
2023/06/15 01:25:29;;;;;;;0.80;0.80;;;;;;;18.67;100.00;96797.53;4946675;28;20118;-63
2023/06/15 01:28:01;;;;;;;0.80;0.80;;;;;;;18.63;100.00;96808.03;4963684;28;20147;-63
2023/06/15 01:30:32;;;;;;;0.70;0.70;;;;;;;18.53;100.00;96809.00;4948625;28;20396;-63
2023/06/15 01:32:59;;;;;;;0.80;0.80;;;;;;;18.35;100.00;96780.47;4948929;28;20490;-62
2023/06/15 01:35:26;;;;;;;0.70;0.70;;;;;;;18.59;100.00;96796.06;4948212;29;20066;-62
2023/06/15 01:37:53;;;;;;;0.80;0.80;;;;;;;18.42;100.00;96802.78;4949294;29;20055;-63
2023/06/15 01:40:20;;;;;;;0.73;0.73;;;;;;;18.42;100.00;96802.78;4948899;28;20082;-63
2023/06/15 01:42:48;;;;;;;0.73;0.73;;;;;;;18.27;100.00;96801.44;4948637;28;20047;-63
2023/06/15 01:45:16;;;;;;;0.70;0.70;;;;;;;18.31;100.00;96802.16;4948529;28;20490;-63
2023/06/15 01:47:45;;;;;;;0.70;0.70;;;;;;;18.35;100.00;96797.28;4948601;28;20908;-62
2023/06/15 01:50:12;;;;;;;0.80;0.80;;;;;;;18.35;100.00;96796.50;4948768;28;20055;-62
2023/06/15 01:52:39;;;;;;;0.80;0.80;;;;;;;17.88;100.00;96756.41;4948337;28;20051;-62
2023/06/15 01:55:07;;;;;;;0.70;0.70;;;;;;;17.15;100.00;96623.94;4948613;28;20055;-62
2023/06/15 01:57:35;;;;;;;0.70;0.70;;;;;;;18.24;100.00;96785.44;4962864;28;20526;-62
2023/06/15 02:00:06;;;;;;;0.70;0.70;;;;;;;17.60;100.00;96706.44;4947315;29;20570;-63
2023/06/15 02:02:32;;;;;;;0.80;0.80;;;;;;;18.15;100.00;96799.22;4948480;28;20051;-62
2023/06/15 02:05:02;;;;;;;0.70;0.70;;;;;;;18.17;100.00;96791.19;4948559;28;20442;-63
2023/06/15 02:07:29;;;;;;;0.80;0.80;;;;;;;17.85;100.00;96751.66;4948599;28;20462;-63
2023/06/15 02:09:56;;;;;;;0.80;0.80;;;;;;;18.18;100.00;96794.78;4963091;28;20628;-63
2023/06/15 02:12:23;;;;;;;0.80;0.80;;;;;;;18.11;100.00;96796.47;4948405;28;20055;-63
2023/06/15 02:14:49;;;;;;;0.80;0.80;;;;;;;17.79;100.00;96725.34;4963277;28;20284;-62
2023/06/15 02:17:17;;;;;;;0.80;0.80;;;;;;;18.16;100.00;96803.63;4948387;28;20458;-62
2023/06/15 02:19:47;;;;;;;0.70;0.70;;;;;;;17.91;100.00;96769.56;4962809;28;20055;-62
2023/06/15 02:22:15;;;;;;;0.70;0.70;;;;;;;17.82;100.00;96763.72;4948382;28;20055;-63
2023/06/15 02:24:42;;;;;;;0.80;0.80;;;;;;;17.38;100.00;96716.34;4948011;28;20062;-63
2023/06/15 02:27:10;;;;;;;0.70;0.70;;;;;;;18.01;100.00;96802.25;4962723;28;20529;-62
2023/06/15 02:29:36;;;;;;;0.77;0.77;;;;;;;17.91;100.00;96792.00;4948432;28;20066;-62
2023/06/15 02:32:03;;;;;;;0.80;0.80;;;;;;;17.93;100.00;96800.78;4961875;28;20058;-62
2023/06/15 02:34:30;;;;;;;0.80;0.80;;;;;;;17.78;100.00;96779.81;4962422;28;20050;-62
2023/06/15 02:36:58;;;;;;;0.80;0.80;;;;;;;17.96;100.00;96811.13;4946683;28;20491;-62
2023/06/15 02:39:25;;;;;;;0.70;0.70;;;;;;;17.90;100.00;96812.84;4947840;28;20503;-62
2023/06/15 02:41:51;;;;;;;0.80;0.80;;;;;;;17.59;100.00;96755.28;4962169;28;20065;-62
2023/06/15 02:44:18;;;;;;;0.70;0.70;;;;;;;17.72;100.00;96787.88;4947982;28;20089;-64
2023/06/15 02:46:45;;;;;;;0.80;0.80;;;;;;;17.72;100.00;96806.72;4947458;28;20082;-62
2023/06/15 02:49:11;;;;;;;0.70;0.70;;;;;;;17.07;100.00;96728.81;4947810;28;20047;-62
2023/06/15 02:51:39;;;;;;;0.75;0.75;;;;;;;17.70;100.00;96812.72;4947298;28;20055;-62
2023/06/15 02:54:06;;;;;;;0.80;0.80;;;;;;;17.29;100.00;96750.47;4947746;28;20240;-63
2023/06/15 02:56:35;;;;;;;0.73;0.73;;;;;;;17.70;100.00;96806.34;4947452;29;20061;-62
2023/06/15 02:59:02;;;;;;;0.70;0.70;;;;;;;17.78;100.00;96807.84;4947983;28;20106;-62
2023/06/15 03:01:37;;;;;;;0.80;0.80;;;;;;;17.69;100.00;96804.75;4947473;28;20073;-63
2023/06/15 03:04:13;;;;;;;0.80;0.80;;;;;;;17.55;100.00;96814.16;4947330;28;20511;-62
2023/06/15 03:06:41;;;;;;;0.70;0.70;;;;;;;17.51;100.00;96815.41;4947001;28;20047;-62
2023/06/15 03:09:08;;;;;;;0.70;0.70;;;;;;;17.51;100.00;96815.41;4947169;28;20063;-63
2023/06/15 03:11:35;;;;;;;0.70;0.70;;;;;;;17.51;100.00;96809.81;4961569;28;20055;-63
2023/06/15 03:14:01;;;;;;;0.70;0.70;;;;;;;17.69;100.00;96810.34;4947437;28;20047;-62
2023/06/15 03:16:28;;;;;;;0.70;0.70;;;;;;;17.71;100.00;96810.72;4961621;28;20058;-62
2023/06/15 03:18:55;;;;;;;0.85;0.85;;;;;;;17.82;100.00;96809.34;4961891;28;20586;-63
2023/06/15 03:21:22;;;;;;;0.70;0.70;;;;;;;17.91;100.00;96806.00;4947279;28;20142;-63
2023/06/15 03:23:50;;;;;;;0.73;0.73;;;;;;;17.82;100.00;96783.34;4945799;28;20234;-63
2023/06/15 03:26:17;;;;;;;0.70;0.70;;;;;;;17.95;100.00;96806.75;4947029;29;20433;-63
2023/06/15 03:28:45;;;;;;;0.80;0.80;;;;;;;17.73;100.00;96766.28;4946291;28;20055;-63
2023/06/15 03:31:17;;;;;;;0.70;0.70;;;;;;;17.68;100.00;96763.94;4947093;28;20059;-62
2023/06/15 03:33:47;;;;;;;0.70;0.70;;;;;;;18.05;100.00;96791.78;4947160;28;20175;-62
2023/06/15 03:36:14;;;;;;;0.80;0.80;;;;;;;17.63;100.00;96717.59;4946783;28;20058;-62
2023/06/15 03:38:41;;;;;;;0.80;0.80;;;;;;;18.22;100.00;96815.94;4946844;28;20058;-62
2023/06/15 03:41:08;;;;;;;0.70;0.70;;;;;;;18.04;100.00;96764.97;4946006;28;20114;-63
2023/06/15 03:43:38;;;;;;;0.70;0.70;;;;;;;18.36;100.00;96803.69;4947095;28;20051;-63
2023/06/15 03:46:05;;;;;;;0.80;0.80;;;;;;;18.35;100.00;96807.72;4961321;28;20078;-62
2023/06/15 03:48:32;;;;;;;0.70;0.70;;;;;;;18.16;98.60;96735.53;4945442;28;20043;-64
2023/06/15 03:50:59;;;;;;;0.80;0.80;;;;;;;18.95;96.98;96813.03;4946650;28;20130;-61
2023/06/15 03:53:26;;;;;;;0.75;0.75;;;;;;;19.09;96.58;96807.94;4946242;28;20051;-62
2023/06/15 03:55:52;;;;;;;0.70;0.70;;;;;;;19.29;94.49;96811.56;4946388;28;20497;-62
2023/06/15 03:58:19;;;;;;;0.70;0.70;;;;;;;19.45;94.44;96803.22;4947003;28;20438;-61
2023/06/15 04:00:46;;;;;;;0.90;0.90;;;;;;;19.72;92.02;96810.63;4960780;28;20060;-62
2023/06/15 04:03:14;;;;;;;0.77;0.77;;;;;;;19.78;91.50;96826.56;4946688;28;20567;-62
2023/06/15 04:05:42;;;;;;;0.85;0.85;;;;;;;19.98;90.18;96809.66;4946540;28;20090;-62
2023/06/15 04:08:08;;;;;;;0.90;0.90;;;;;;;20.09;89.42;96813.00;4946572;28;20486;-61
2023/06/15 04:10:35;;;;;;;0.70;0.70;;;;;;;20.13;89.15;96813.69;4945986;28;20055;-62
2023/06/15 04:13:03;;;;;;;0.80;0.80;;;;;;;20.27;89.02;96810.56;4961163;28;20051;-63
2023/06/15 04:15:30;;;;;;;0.80;0.80;;;;;;;20.14;89.39;96795.63;4945903;28;20047;-62
2023/06/15 04:18:00;;;;;;;0.80;0.80;;;;;;;20.38;88.69;96813.91;4960931;28;20047;-61
2023/06/15 04:20:28;;;;;;;0.90;0.90;;;;;;;20.12;88.60;96820.56;4945703;28;20186;-61
2023/06/15 04:22:58;;;;;;;0.90;0.90;;;;;;;20.00;90.29;96770.59;4946094;28;20085;-61
2023/06/15 04:25:28;;;;;;;0.85;0.85;;;;;;;20.41;90.41;96825.06;4960341;28;20054;-62
2023/06/15 04:27:55;;;;;;;0.90;0.90;;;;;;;20.72;89.83;96817.06;4945619;28;20145;-61
2023/06/15 04:30:24;;;;;;;0.80;0.80;;;;;;;20.71;89.95;96816.25;4945964;28;20511;-62
2023/06/15 04:32:59;;;;;;;0.90;0.90;;;;;;;20.86;87.91;96777.25;4945525;28;20652;-63
2023/06/15 04:35:31;;;;;;;0.90;0.90;;;;;;;21.22;85.57;96819.31;4960165;28;20059;-62
2023/06/15 04:37:58;;;;;;;0.80;0.80;;;;;;;20.96;85.31;96776.19;4960461;28;20334;-62
2023/06/15 04:40:25;;;;;;;0.90;0.90;;;;;;;21.14;84.78;96753.94;4960404;28;20149;-61
2023/06/15 04:42:57;;;;;;;0.90;0.90;;;;;;;21.66;84.11;96807.94;4945833;28;20082;-62
2023/06/15 04:45:24;;;;;;;0.80;0.80;;;;;;;21.07;82.53;96748.50;4945992;28;20541;-61
2023/06/15 04:47:52;;;;;;;0.80;0.80;;;;;;;21.83;82.01;96812.28;4960065;28;20073;-62
2023/06/15 04:50:21;;;;;;;0.90;0.90;;;;;;;21.84;81.37;96811.06;4945325;28;20047;-62
2023/06/15 04:52:51;;;;;;;0.90;0.90;;;;;;;21.08;81.84;96693.75;4943598;28;20084;-62
2023/06/15 04:55:17;;;;;;;0.90;0.90;;;;;;;21.92;81.17;96814.44;4945647;28;20059;-61
2023/06/15 04:57:45;;;;;;;0.95;0.95;;;;;;;22.08;79.96;96806.63;4960077;28;20070;-62
2023/06/15 05:00:13;;;;;;;0.93;0.93;;;;;;;22.17;80.03;96817.25;4948292;28;20055;-62
2023/06/15 05:02:40;;;;;;;0.90;0.90;;;;;;;21.83;79.43;96761.50;4949362;28;20106;-62
2023/06/15 05:05:07;;;;;;;0.95;0.95;;;;;;;21.86;78.92;96760.59;4947651;28;20047;-64
2023/06/15 05:07:33;;;;;;;0.90;0.90;;;;;;;22.28;78.53;96804.38;4947674;28;20055;-62
2023/06/15 05:10:00;;;;;;;1.00;1.00;;;;;;;22.49;77.82;96822.66;4947359;28;20051;-62
2023/06/15 05:12:27;;;;;;;0.90;0.90;;;;;;;22.55;78.56;96820.88;4947297;28;20512;-61
2023/06/15 05:14:53;;;;;;;1.10;1.10;;;;;;;22.51;78.69;96827.84;4946976;28;20048;-61
2023/06/15 05:17:20;;;;;;;1.00;1.00;;;;;;;22.04;79.68;96749.56;4947555;28;20066;-63
2023/06/15 05:19:47;;;;;;;1.05;1.05;;;;;;;22.59;79.20;96817.94;4978798;28;20062;-62
2023/06/15 05:22:14;;;;;;;1.00;1.00;;;;;;;22.66;78.51;96828.97;4948888;28;20117;-62
2023/06/15 05:24:41;;;;;;;1.10;1.10;;;;;;;22.57;77.73;96786.53;4963265;28;20083;-61
2023/06/15 05:27:08;;;;;;;1.00;1.00;;;;;;;22.48;77.64;96755.34;4948758;28;20063;-62
2023/06/15 05:29:36;;;;;;;0.95;0.95;;;;;;;23.01;77.03;96810.78;4948922;28;20047;-62
2023/06/15 05:32:03;;;;;;;1.10;1.10;;;;;;;23.20;76.25;96810.50;4949094;28;20058;-62
2023/06/15 05:34:30;;;;;;;1.20;1.20;;;;;;;23.02;76.55;96795.41;4949280;28;20051;-61
2023/06/15 05:36:56;;;;;;;1.00;1.00;;;;;;;23.41;77.31;96823.88;4963857;28;20135;-62
2023/06/15 05:39:25;;;;;;;1.00;1.00;;;;;;;23.56;76.25;96824.94;4977320;28;20079;-61
2023/06/15 05:41:51;;;;;;;1.00;1.00;;;;;;;23.29;75.32;96758.91;4948297;28;20102;-61
2023/06/15 05:44:21;;;;;;;1.05;1.05;;;;;;;23.80;74.83;96816.75;4948179;28;20118;-62
2023/06/15 05:46:50;;;;;;;1.10;1.10;;;;;;;23.90;73.23;96821.19;4948963;28;20102;-61
2023/06/15 05:49:17;;;;;;;1.00;1.00;;;;;;;22.70;73.50;96648.91;4948607;28;20047;-62
2023/06/15 05:51:43;;;;;;;1.10;1.10;;;;;;;23.96;73.46;96825.00;4947706;28;20453;-61
2023/06/15 05:54:10;;;;;;;1.00;1.00;;;;;;;23.92;74.21;96819.50;4948727;28;20051;-60
2023/06/15 05:56:37;;;;;;;0.90;0.90;;;;;;;23.83;72.98;96807.34;4948349;29;20051;-63
2023/06/15 05:59:06;;;;;;;0.90;0.90;;;;;;;23.05;70.33;96684.28;4948840;28;20093;-62
2023/06/15 06:01:52;;;;;;;1.00;1.00;;;;;;;24.23;70.89;96822.34;4960445;28;20047;-64
2023/06/15 06:04:19;;;;;;;1.13;1.13;;;;;;;24.11;70.52;96811.91;4948553;28;20047;-62
2023/06/15 06:06:48;;;;;;;1.10;1.10;;;;;;;24.49;68.61;96829.34;4948390;28;20055;-64
2023/06/15 06:09:15;;;;;;;1.10;1.10;;;;;;;24.62;68.36;96827.19;4948646;28;20453;-62
2023/06/15 06:11:42;;;;;;;1.10;1.10;;;;;;;23.48;74.19;96823.63;4930390;29;20514;-61
2023/06/15 06:14:08;;;;;;;1.00;1.00;;;;;;;23.03;76.96;96825.25;4929025;29;20052;-63
2023/06/15 06:16:35;;;;;;;1.08;1.08;;;;;;;22.62;77.37;96825.50;4928478;29;20048;-64
2023/06/15 06:19:02;;;;;;;1.00;1.00;;;;;;;22.98;73.91;96828.66;4929220;29;20052;-64
2023/06/15 06:21:31;;;;;;;1.00;1.00;;;;;;;20.90;73.70;96513.22;4932573;28;20054;-62
2023/06/15 06:23:58;;;;;;;0.88;0.88;;;;;;;23.53;72.16;96825.06;4973382;28;20474;-65
2023/06/15 06:26:25;;;;;;;1.10;1.10;;;;;;;23.77;70.97;96877.09;4946909;28;20047;-64
2023/06/15 06:28:52;;;;;;;1.10;1.10;;;;;;;23.67;69.76;96830.19;4945895;28;20121;-65
2023/06/15 06:31:19;;;;;;;1.10;1.10;;;;;;;24.19;68.86;96838.66;4944060;28;20051;-66
2023/06/15 06:33:46;;;;;;;1.00;1.00;;;;;;;24.13;67.46;96783.94;4958791;28;20059;-65
2023/06/15 06:36:12;;;;;;;1.00;1.00;;;;;;;23.26;67.05;96800.22;4946269;28;20051;-64
2023/06/15 06:38:39;;;;;;;1.00;1.00;;;;;;;23.93;69.19;96814.63;4945170;28;20549;-65
2023/06/15 06:41:22;;;;;;;1.30;1.30;;;;;;;24.17;69.13;96815.69;4945720;28;20067;-65
2023/06/15 06:43:49;;;;;;;1.20;1.20;;;;;;;24.58;69.09;96812.38;4946469;28;20511;-62
2023/06/15 06:46:15;;;;;;;1.02;1.02;;;;;;;24.88;67.54;96811.53;4945968;28;20074;-65
2023/06/15 06:48:42;;;;;;;1.00;1.00;;;;;;;24.91;66.46;96787.91;4944010;28;20333;-66
2023/06/15 06:51:09;;;;;;;1.20;1.20;;;;;;;24.91;66.67;96812.66;4947021;28;20426;-61
2023/06/15 06:53:35;;;;;;;1.20;1.20;;;;;;;24.90;65.65;96729.66;4947041;28;20519;-63
2023/06/15 06:56:02;;;;;;;1.30;1.30;;;;;;;25.52;64.60;96808.72;4958804;28;20047;-63
2023/06/15 06:58:29;;;;;;;1.30;1.30;;;;;;;25.55;64.63;96807.78;4927721;29;20198;-62
2023/06/15 07:00:55;;;;;;;1.45;1.45;;;;;;;25.04;64.22;96722.56;4933099;29;20102;-63
2023/06/15 07:03:22;;;;;;;1.05;1.05;;;;;;;24.93;65.57;96762.72;4947173;28;20077;-65
2023/06/15 07:05:49;;;;;;;1.20;1.20;;;;;;;23.89;70.60;96814.75;4940961;28;38631;-61
2023/06/15 07:08:16;;;;;;;1.08;1.08;;;;;;;23.04;71.78;96699.69;4940349;28;84917;-64
2023/06/15 07:10:43;;;;;;;1.10;1.10;;;;;;;23.81;70.44;96807.00;4946410;28;20055;-64
2023/06/15 07:13:10;;;;;;;0.93;0.93;;;;;;;23.70;72.45;96812.28;4946837;28;20061;-64
2023/06/15 07:15:36;;;;;;;1.10;1.10;;;;;;;24.03;70.26;96807.00;4945735;29;20055;-61
2023/06/15 07:18:03;;;;;;;1.00;1.00;;;;;;;23.84;69.82;96806.06;4944435;28;20047;-64
2023/06/15 07:20:30;;;;;;;1.13;1.13;;;;;;;24.41;68.55;96793.28;4944059;28;20051;-67
2023/06/15 07:22:56;;;;;;;1.17;1.17;;;;;;;25.22;65.20;96808.41;4959015;28;20055;-65
2023/06/15 07:25:23;;;;;;;1.10;1.10;;;;;;;25.32;63.55;96792.19;4943500;28;20082;-62
2023/06/15 07:27:50;;;;;;;1.20;1.20;;;;;;;25.21;64.00;96806.81;4973209;28;20067;-62
2023/06/15 07:30:17;;;;;;;1.20;1.20;;;;;;;25.13;64.64;96793.44;4943956;28;20194;-63
2023/06/15 07:32:44;;;;;;;1.40;1.40;;;;;;;25.48;63.86;96774.06;4941880;29;20446;-62
2023/06/15 07:35:10;;;;;;;1.30;1.30;;;;;;;26.12;62.95;96807.53;4943466;28;20166;-61
2023/06/15 07:37:37;;;;;;;1.40;1.40;;;;;;;25.56;61.75;96693.81;4942884;28;20138;-64
2023/06/15 07:40:05;;;;;;;1.30;1.30;;;;;;;25.84;64.04;96808.03;4943417;29;20475;-63
2023/06/15 07:42:31;;;;;;;1.10;1.10;;;;;;;25.97;63.07;96806.56;4944251;29;20047;-67
2023/06/15 07:44:58;;;;;;;1.30;1.30;;;;;;;25.44;61.75;96764.91;4944653;28;20067;-64
2023/06/15 07:47:26;;;;;;;1.10;1.10;;;;;;;24.94;65.12;96801.13;4959422;28;20066;-64
2023/06/15 07:49:53;;;;;;;1.25;1.25;;;;;;;25.54;64.86;96794.84;4946042;29;20055;-62
2023/06/15 07:52:19;;;;;;;1.20;1.20;;;;;;;26.07;62.72;96798.84;4945971;28;20051;-65
2023/06/15 07:54:46;;;;;;;1.35;1.35;;;;;;;25.93;64.10;96800.28;4946398;28;20066;-63
2023/06/15 07:57:13;;;;;;;1.17;1.17;;;;;;;25.14;65.54;96801.47;4945295;28;20138;-62
2023/06/15 07:59:40;;;;;;;1.23;1.23;;;;;;;24.70;66.78;96698.19;4946378;28;20081;-63
2023/06/15 08:02:07;;;;;;;1.10;1.10;;;;;;;25.40;67.07;96784.97;4945866;28;20138;-64
2023/06/15 08:04:33;;;;;;;1.30;1.30;;;;;;;25.93;66.36;96785.31;4946678;28;20052;-68
2023/06/15 08:07:00;;;;;;;1.38;1.38;;;;;;;26.03;63.03;96815.28;4945793;28;20105;-65
2023/06/15 08:09:27;;;;;;;1.52;1.52;;;;;;;26.53;62.72;96769.75;4961039;28;20077;-61
2023/06/15 08:11:54;;;;;;;1.45;1.45;;;;;;;26.98;60.04;96725.25;4943787;29;20058;-64
2023/06/15 08:14:20;;;;;;;1.33;1.33;;;;;;;25.97;63.36;96769.66;4946175;29;20067;-66
2023/06/15 08:16:47;;;;;;;1.20;1.20;;;;;;;25.77;64.35;96779.97;4945591;28;20138;-63
2023/06/15 08:19:14;;;;;;;1.20;1.20;;;;;;;26.39;63.10;96779.00;4943789;28;20051;-63
2023/06/15 08:21:41;;;;;;;1.38;1.38;;;;;;;26.60;61.19;96777.16;4926448;29;20055;-62
2023/06/15 08:24:08;;;;;;;1.30;1.30;;;;;;;25.92;63.05;96783.75;4926565;28;20058;-63
2023/06/15 08:26:35;;;;;;;1.55;1.55;;;;;;;26.13;61.03;96740.16;4926600;29;20476;-62
2023/06/15 08:29:02;;;;;;;1.20;1.20;;;;;;;27.08;60.01;96718.25;4926485;28;20442;-63
2023/06/15 08:31:48;;;;;;;1.35;1.35;;;;;;;27.47;57.90;96774.66;4970329;28;20474;-64
2023/06/15 08:34:14;;;;;;;1.38;1.38;;;;;;;27.10;59.40;96739.22;4945485;29;20067;-66
2023/06/15 08:36:41;;;;;;;1.42;1.42;;;;;;;26.07;61.01;96708.00;4945757;28;20105;-63
2023/06/15 08:39:08;;;;;;;1.30;1.30;;;;;;;25.75;62.33;96700.22;4945898;28;20055;-66
2023/06/15 08:41:38;;;;;;;1.30;1.30;;;;;;;26.47;61.29;96694.19;4945317;28;20047;-63
2023/06/15 08:44:05;;;;;;;1.60;1.60;;;;;;;27.60;56.54;96772.28;4943346;28;20055;-60
2023/06/15 08:46:32;;;;;;;1.45;1.45;;;;;;;27.89;53.00;96726.75;4945080;28;20047;-61
2023/06/15 08:49:00;;;;;;;1.40;1.40;;;;;;;26.93;53.24;96530.53;4944704;28;20055;-64
2023/06/15 08:51:27;;;;;;;1.45;1.45;;;;;;;27.82;56.72;96758.44;4944989;29;20067;-67
2023/06/15 08:53:57;;;;;;;1.52;1.52;;;;;;;28.67;56.29;96756.47;4945808;29;20142;-66
2023/06/15 08:56:27;;;;;;;1.63;1.63;;;;;;;28.90;54.98;96758.34;4945432;29;20055;-67
2023/06/15 08:58:54;;;;;;;1.50;1.50;;;;;;;28.34;57.05;96758.81;4945329;29;20062;-61
2023/06/15 09:01:23;;;;;;;1.63;1.63;;;;;;;28.59;54.40;96743.91;4944702;29;20082;-64
2023/06/15 09:03:54;;;;;;;1.60;1.60;;;;;;;28.42;54.67;96717.22;4945069;29;20047;-64
2023/06/15 09:06:22;;;;;;;1.55;1.55;;;;;;;28.28;54.05;96706.66;4943033;29;20442;-67
2023/06/15 09:08:51;;;;;;;1.48;1.48;;;;;;;28.93;52.36;96763.03;4937362;28;20056;-63
2023/06/15 09:11:18;;;;;;;1.40;1.40;;;;;;;29.37;51.48;96752.22;4940083;29;20613;-64
2023/06/15 09:13:48;;;;;;;1.60;1.60;;;;;;;29.72;49.17;96704.31;4943724;28;20425;-65
2023/06/15 09:16:15;;;;;;;1.58;1.58;;;;;;;30.79;47.91;96746.19;4945198;28;20161;-63
2023/06/15 09:18:46;;;;;;;1.40;1.40;;;;;;;28.83;50.04;96735.97;4944111;28;20064;-65
2023/06/15 09:21:14;;;;;;;1.30;1.30;;;;;;;28.43;53.06;96730.19;4943405;29;20055;-62
2023/06/15 09:23:44;;;;;;;1.33;1.33;;;;;;;29.03;51.75;96751.00;4943200;28;20102;-63
2023/06/15 09:26:26;;;;;;;1.48;1.48;;;;;;;28.35;54.74;96746.13;4943881;29;20469;-69
2023/06/15 09:28:57;;;;;;;1.58;1.58;;;;;;;29.10;51.52;96749.81;4943822;29;20051;-68
2023/06/15 09:31:34;;;;;;;1.65;1.65;;;;;;;29.27;50.06;96745.09;4943230;29;20059;-66
2023/06/15 09:34:02;;;;;;;1.60;1.60;;;;;;;29.82;49.73;96739.97;4935127;29;20058;-62
2023/06/15 09:36:44;;;;;;;1.70;1.70;;;;;;;30.29;46.50;96738.56;4944932;28;20059;-63
2023/06/15 09:39:13;;;;;;;1.40;1.40;;;;;;;30.19;47.32;96728.59;4944155;29;20051;-66
2023/06/15 09:41:54;;;;;;;1.80;1.80;;;;;;;28.86;47.27;96512.50;4944453;29;20145;-65
2023/06/15 09:44:22;;;;;;;1.80;1.80;;;;;;;29.98;44.88;96658.56;4945170;28;20055;-63
2023/06/15 09:46:57;;;;;;;1.77;1.77;;;;;;;30.62;45.79;96693.81;4945881;28;20054;-66
2023/06/15 09:49:26;;;;;;;1.80;1.80;;;;;;;30.94;44.61;96689.56;4947874;28;20054;-62
2023/06/15 09:51:55;;;;;;;1.75;1.75;;;;;;;30.90;42.97;96728.31;4947800;29;20047;-63
2023/06/15 09:54:23;;;;;;;1.60;1.60;;;;;;;30.87;43.65;96718.66;4948363;28;20047;-64
2023/06/15 09:56:52;;;;;;;1.80;1.80;;;;;;;30.29;44.43;96661.38;4947947;29;20051;-67
2023/06/15 09:59:20;;;;;;;1.65;1.65;;;;;;;29.92;44.46;96529.97;4947110;29;20119;-60
2023/06/15 10:01:50;;;;;;;1.77;1.77;;;;;;;31.03;44.44;96690.66;4947747;29;20162;-62
2023/06/15 10:04:19;;;;;;;1.50;1.50;;;;;;;31.02;43.73;96686.19;4947988;29;20062;-66
2023/06/15 10:06:50;;;;;;;1.80;1.80;;;;;;;31.41;43.76;96710.06;4945231;29;20130;-62
2023/06/15 10:09:24;;;;;;;1.70;1.70;;;;;;;31.50;43.26;96704.06;4943914;29;20122;-62
2023/06/15 10:11:55;;;;;;;1.73;1.73;;;;;;;31.26;43.58;96704.50;4947676;28;20105;-62
2023/06/15 10:14:31;;;;;;;1.63;1.63;;;;;;;31.33;44.17;96697.53;4977396;28;20425;-61
2023/06/15 10:17:02;;;;;;;1.80;1.80;;;;;;;30.95;44.26;96633.91;4946132;28;20073;-62
2023/06/15 10:19:32;;;;;;;1.85;1.85;;;;;;;31.23;44.29;96687.59;4976105;28;20047;-66
2023/06/15 10:21:59;;;;;;;1.50;1.50;;;;;;;30.98;43.90;96701.53;4960515;28;20055;-67
2023/06/15 10:24:28;;;;;;;1.77;1.77;;;;;;;30.80;44.87;96696.28;4976619;28;20047;-64
2023/06/15 10:26:57;;;;;;;1.90;1.90;;;;;;;30.84;43.91;96691.09;4937620;28;20083;-63
2023/06/15 10:29:31;;;;;;;1.58;1.58;;;;;;;30.90;44.76;96694.75;4926961;28;20553;-62
2023/06/15 10:32:20;;;;;;;1.40;1.40;;;;;;;30.87;43.66;96689.28;4928826;29;20150;-61
2023/06/15 10:34:51;;;;;;;1.60;1.60;;;;;;;30.57;44.43;96685.22;4928506;29;20060;-61
2023/06/15 10:37:30;;;;;;;1.60;1.60;;;;;;;31.44;42.70;96686.09;4928414;28;20068;-61
2023/06/15 10:40:10;;;;;;;1.63;1.63;;;;;;;31.60;42.06;96682.50;4928090;29;20063;-66
2023/06/15 10:42:44;;;;;;;1.67;1.67;;;;;;;31.68;41.90;96677.81;4925186;28;20060;-62
2023/06/15 10:45:28;;;;;;;1.70;1.70;;;;;;;31.53;43.15;96645.75;4924768;28;20051;-66
2023/06/15 10:47:57;;;;;;;1.70;1.70;;;;;;;31.50;43.16;96633.28;4940226;28;20442;-67
2023/06/15 10:50:36;;;;;;;1.60;1.60;;;;;;;32.03;43.40;96675.22;4938939;29;20455;-64
2023/06/15 10:53:03;;;;;;;1.83;1.83;;;;;;;31.68;43.53;96677.81;4949312;28;20050;-66
2023/06/15 10:55:31;;;;;;;1.70;1.70;;;;;;;31.39;43.49;96667.63;4956161;28;20056;-61
2023/06/15 10:58:18;;;;;;;1.70;1.70;;;;;;;30.84;44.83;96679.63;4975847;28;20069;-63
2023/06/15 11:00:50;;;;;;;1.60;1.60;;;;;;;30.73;44.71;96662.41;4939488;28;20074;-65
2023/06/15 11:03:24;;;;;;;1.50;1.50;;;;;;;30.58;43.59;96681.84;4946650;28;20059;-63
2023/06/15 11:06:02;;;;;;;1.70;1.70;;;;;;;30.91;43.59;96684.88;4946490;28;20051;-62
2023/06/15 11:08:31;;;;;;;1.55;1.55;;;;;;;31.29;43.36;96668.34;4960472;28;20529;-64
2023/06/15 11:10:58;;;;;;;1.80;1.80;;;;;;;31.25;43.21;96662.09;4964653;28;20062;-61
2023/06/15 11:13:26;;;;;;;1.80;1.80;;;;;;;31.02;43.72;96666.16;4980406;28;20065;-62
2023/06/15 11:16:07;;;;;;;1.80;1.80;;;;;;;31.07;43.30;96668.28;4963886;28;20442;-61
2023/06/15 11:18:34;;;;;;;1.50;1.50;;;;;;;30.54;43.09;96641.25;4964628;28;20054;-61
2023/06/15 11:21:02;;;;;;;1.60;1.60;;;;;;;31.21;44.13;96673.00;4964544;28;20069;-65
2023/06/15 11:23:32;;;;;;;1.70;1.70;;;;;;;30.86;42.65;96679.13;4966045;28;20648;-65
2023/06/15 11:26:01;;;;;;;2.08;2.08;;;;;;;31.01;42.43;96641.72;4980473;28;20066;-61
2023/06/15 11:28:33;;;;;;;1.70;1.70;;;;;;;31.76;41.69;96673.09;4965760;28;20647;-61
2023/06/15 11:31:06;;;;;;;1.50;1.50;;;;;;;31.58;41.34;96662.16;4966104;28;20046;-65
2023/06/15 11:33:36;;;;;;;1.65;1.65;;;;;;;31.66;40.87;96663.22;4964975;28;20050;-64
2023/06/15 11:36:08;;;;;;;1.65;1.65;;;;;;;31.62;41.37;96657.75;4966017;28;20520;-62
2023/06/15 11:38:35;;;;;;;1.70;1.70;;;;;;;31.85;40.63;96653.59;4964832;28;20085;-61